Time;durP1;ratioP1;P1;durP2;ratioP2;P2;SDS_P1;SDS_P2;PMS_P1;PMS_P2;Temp;Humidity;BMP_temperature;BMP_pressure;BME280_temperature;BME280_humidity;BME280_pressure;Samples;Min_cycle;Max_cycle;Signal;HPM_P1;HPM_P2
2022/08/26 00:00:44;;;;;;;;;;;20.00;56.30;;;;;;5140949;27;20269;-47
2022/08/26 00:03:11;;;;;;;;;;;20.70;60.50;;;;;;5150871;27;19979;-47
2022/08/26 00:05:37;;;;;;;;;;;21.50;60.90;;;;;;5145626;27;20006;-50
2022/08/26 00:08:03;;;;;;;;;;;21.50;58.40;;;;;;5145499;27;19933;-46
2022/08/26 00:10:29;;;;;;;;;;;20.80;56.50;;;;;;5150817;27;20006;-44
2022/08/26 00:12:55;;;;;;;;;;;20.60;54.70;;;;;;5145419;27;19974;-46
2022/08/26 00:15:21;;;;;;;;;;;20.30;54.20;;;;;;5145288;27;20179;-45
2022/08/26 00:17:47;;;;;;;;;;;20.20;53.20;;;;;;5129377;27;19979;-50
2022/08/26 00:20:14;;;;;;;;;;;20.20;52.60;;;;;;5124603;27;19945;-46
2022/08/26 00:22:40;;;;;;;;;;;20.00;53.90;;;;;;5150328;27;21095;-50
2022/08/26 00:25:06;;;;;;;;;;;20.50;60.20;;;;;;5145406;27;19934;-45
2022/08/26 00:27:32;;;;;;;;;;;21.30;61.30;;;;;;5145069;27;19937;-47
2022/08/26 00:30:08;;;;;;;;;;;21.50;59.00;;;;;;5149446;27;19923;-46
2022/08/26 00:32:34;;;;;;;;;;;20.90;56.40;;;;;;5144916;27;19955;-46
2022/08/26 00:35:00;;;;;;;;;;;20.50;55.00;;;;;;5120699;27;20271;-46
2022/08/26 00:37:26;;;;;;;;;;;20.10;54.50;;;;;;5144009;27;19987;-46
2022/08/26 00:39:52;;;;;;;;;;;20.10;53.60;;;;;;5144785;27;19931;-46
2022/08/26 00:42:17;;;;;;;;;;;20.00;52.60;;;;;;5144742;27;19934;-45
2022/08/26 00:44:43;;;;;;;;;;;19.80;52.70;;;;;;5150429;27;19968;-46
2022/08/26 00:47:11;;;;;;;;;;;20.20;57.30;;;;;;5144827;27;20382;-46
2022/08/26 00:49:41;;;;;;;;;;;20.90;60.70;;;;;;5150200;27;19941;-47
2022/08/26 00:52:07;;;;;;;;;;;21.60;60.70;;;;;;5144700;27;20346;-47
2022/08/26 00:54:34;;;;;;;;;;;21.20;58.00;;;;;;5140410;27;20182;-50
2022/08/26 00:57:01;;;;;;;;;;;20.50;56.40;;;;;;5147845;27;20155;-47
2022/08/26 00:59:27;;;;;;;;;;;20.30;54.90;;;;;;5144313;27;20375;-49
2022/08/26 01:01:53;;;;;;;;;;;20.40;53.10;;;;;;5144249;27;20222;-49
2022/08/26 01:04:20;;;;;;;;;;;20.00;52.80;;;;;;5148440;27;19934;-46
2022/08/26 01:06:46;;;;;;;;;;;19.90;53.30;;;;;;5141109;27;19923;-46
2022/08/26 01:09:12;;;;;;;;;;;20.30;60.20;;;;;;5147393;27;19951;-54
2022/08/26 01:11:37;;;;;;;;;;;21.10;61.60;;;;;;5145068;27;20290;-47
2022/08/26 01:14:03;;;;;;;;;;;21.70;59.70;;;;;;5139618;27;20374;-48
2022/08/26 01:16:29;;;;;;;;;;;21.00;57.50;;;;;;5147647;27;19934;-48
2022/08/26 01:18:58;;;;;;;;;;;20.50;55.80;;;;;;5144235;27;19930;-46
2022/08/26 01:21:31;;;;;;;;;;;20.30;54.60;;;;;;5142876;27;19923;-47
2022/08/26 01:23:57;;;;;;;;;;;20.20;53.20;;;;;;5148373;27;19953;-46
2022/08/26 01:26:28;;;;;;;;;;;20.10;52.70;;;;;;5141350;27;19930;-48
2022/08/26 01:28:55;;;;;;;;;;;20.00;52.40;;;;;;5143776;27;19926;-46
2022/08/26 01:31:22;;;;;;;;;;;20.20;58.50;;;;;;5145925;27;20428;-46
2022/08/26 01:33:56;;;;;;;;;;;20.90;61.20;;;;;;5137424;27;20434;-45
2022/08/26 01:36:22;;;;;;;;;;;21.70;60.60;;;;;;5145585;27;20025;-54
2022/08/26 01:38:48;;;;;;;;;;;21.20;57.40;;;;;;5147688;27;20301;-48
2022/08/26 01:41:14;;;;;;;;;;;20.50;56.00;;;;;;5143529;27;20173;-49
2022/08/26 01:43:40;;;;;;;;;;;20.30;54.90;;;;;;5149220;27;20644;-46
2022/08/26 01:46:06;;;;;;;;;;;20.20;53.70;;;;;;5140232;27;19967;-50
2022/08/26 01:48:31;;;;;;;;;;;20.00;53.30;;;;;;5143364;27;19923;-48
2022/08/26 01:50:58;;;;;;;;;;;19.80;52.90;;;;;;5142473;27;20505;-46
2022/08/26 01:53:23;;;;;;;;;;;19.80;52.70;;;;;;5141759;27;20019;-48
2022/08/26 01:55:51;;;;;;;;;;;20.30;59.10;;;;;;5143358;27;19931;-47
2022/08/26 01:58:20;;;;;;;;;;;21.00;61.40;;;;;;5147534;27;19923;-48
2022/08/26 02:00:45;;;;;;;;;;;21.80;60.70;;;;;;5141286;27;19931;-45
2022/08/26 02:03:17;;;;;;;;;;;21.10;58.00;;;;;;5148743;27;20268;-46
2022/08/26 02:05:44;;;;;;;;;;;20.50;55.90;;;;;;5143097;27;19923;-46
2022/08/26 02:08:10;;;;;;;;;;;20.30;54.40;;;;;;5139799;27;19991;-49
2022/08/26 02:10:36;;;;;;;;;;;20.00;54.00;;;;;;5146277;27;19923;-46
2022/08/26 02:13:01;;;;;;;;;;;19.90;53.30;;;;;;5142948;27;19935;-46
2022/08/26 02:15:27;;;;;;;;;;;19.80;52.90;;;;;;5142688;27;19974;-47
2022/08/26 02:17:53;;;;;;;;;;;19.90;55.50;;;;;;5145336;27;19923;-47
2022/08/26 02:20:19;;;;;;;;;;;20.50;60.70;;;;;;5141917;27;19927;-49
2022/08/26 02:22:45;;;;;;;;;;;21.30;61.10;;;;;;5146270;27;19930;-55
2022/08/26 02:25:14;;;;;;;;;;;21.70;59.20;;;;;;5145326;27;20038;-46
2022/08/26 02:27:40;;;;;;;;;;;20.90;57.00;;;;;;5137816;27;19936;-46
2022/08/26 02:30:10;;;;;;;;;;;20.50;55.50;;;;;;5148106;27;20279;-50
2022/08/26 02:32:36;;;;;;;;;;;20.30;53.90;;;;;;5142386;27;19924;-47
2022/08/26 02:35:02;;;;;;;;;;;20.10;53.10;;;;;;5142729;27;19930;-46
2022/08/26 02:37:28;;;;;;;;;;;20.00;53.00;;;;;;5148077;27;19927;-47
2022/08/26 02:39:54;;;;;;;;;;;19.80;52.40;;;;;;5138839;27;20362;-46
2022/08/26 02:42:20;;;;;;;;;;;20.30;59.00;;;;;;5142715;27;19931;-50
2022/08/26 02:44:46;;;;;;;;;;;20.90;61.50;;;;;;5145110;27;20007;-53
2022/08/26 02:47:12;;;;;;;;;;;21.70;60.60;;;;;;5140564;27;20009;-50
2022/08/26 02:49:38;;;;;;;;;;;21.10;57.80;;;;;;5147804;27;19965;-48
2022/08/26 02:52:04;;;;;;;;;;;20.40;56.00;;;;;;5142349;27;19923;-47
2022/08/26 02:54:30;;;;;;;;;;;20.40;54.50;;;;;;5142462;27;19979;-46
2022/08/26 02:56:56;;;;;;;;;;;20.10;53.50;;;;;;5147810;27;20022;-48
2022/08/26 02:59:21;;;;;;;;;;;19.80;53.10;;;;;;5142250;27;19938;-51
2022/08/26 03:01:48;;;;;;;;;;;19.80;54.20;;;;;;5142212;27;19923;-46
2022/08/26 03:04:14;;;;;;;;;;;20.40;60.20;;;;;;5143189;27;19923;-50
2022/08/26 03:06:40;;;;;;;;;;;21.20;61.50;;;;;;5141557;27;19930;-48
2022/08/26 03:09:06;;;;;;;;;;;21.70;59.70;;;;;;5147742;27;19923;-46
2022/08/26 03:11:31;;;;;;;;;;;20.80;57.00;;;;;;5142099;27;20021;-46
2022/08/26 03:13:59;;;;;;;;;;;20.40;55.20;;;;;;5117462;27;20541;-46
2022/08/26 03:16:25;;;;;;;;;;;20.20;54.30;;;;;;5147562;27;19971;-46
2022/08/26 03:18:50;;;;;;;;;;;19.80;53.40;;;;;;5123623;27;19923;-46
2022/08/26 03:21:16;;;;;;;;;;;19.90;52.70;;;;;;5140532;27;20055;-48
2022/08/26 03:23:42;;;;;;;;;;;19.80;53.40;;;;;;5144204;27;19927;-48
2022/08/26 03:26:08;;;;;;;;;;;20.30;59.70;;;;;;5142078;27;19923;-45
2022/08/26 03:28:34;;;;;;;;;;;21.00;61.50;;;;;;5145100;27;19927;-56
2022/08/26 03:30:59;;;;;;;;;;;21.70;60.10;;;;;;5144540;27;19923;-45
2022/08/26 03:33:25;;;;;;;;;;;20.90;57.30;;;;;;5145921;27;20382;-46
2022/08/26 03:35:51;;;;;;;;;;;20.30;55.80;;;;;;5151523;27;19982;-46
2022/08/26 03:38:18;;;;;;;;;;;20.30;54.30;;;;;;5145948;27;20429;-48
2022/08/26 03:40:44;;;;;;;;;;;19.90;53.50;;;;;;5142287;27;19934;-49
2022/08/26 03:43:10;;;;;;;;;;;19.80;52.90;;;;;;5149861;27;20018;-47
2022/08/26 03:45:36;;;;;;;;;;;19.60;53.10;;;;;;5145698;27;20883;-47
2022/08/26 03:48:02;;;;;;;;;;;20.30;59.70;;;;;;5146169;27;19923;-56
2022/08/26 03:50:28;;;;;;;;;;;21.00;61.40;;;;;;5151082;27;20323;-47
2022/08/26 03:52:54;;;;;;;;;;;21.80;59.70;;;;;;5145661;27;19927;-46
2022/08/26 03:55:21;;;;;;;;;;;21.00;57.10;;;;;;5151324;27;20379;-48
2022/08/26 03:57:46;;;;;;;;;;;20.50;55.60;;;;;;5145242;27;19993;-49
2022/08/26 04:00:14;;;;;;;;;;;20.30;54.20;;;;;;5121703;27;19931;-46
2022/08/26 04:02:44;;;;;;;;;;;20.00;53.40;;;;;;5150775;27;19930;-46
2022/08/26 04:05:11;;;;;;;;;;;19.80;53.00;;;;;;5145440;27;20438;-47
2022/08/26 04:07:36;;;;;;;;;;;20.00;56.60;;;;;;5144298;27;19934;-47
2022/08/26 04:10:02;;;;;;;;;;;20.60;61.10;;;;;;5150853;27;19932;-46
2022/08/26 04:12:28;;;;;;;;;;;21.40;61.00;;;;;;5145553;27;19971;-48
2022/08/26 04:14:54;;;;;;;;;;;21.30;58.30;;;;;;5151010;27;19930;-46
2022/08/26 04:17:19;;;;;;;;;;;20.50;56.40;;;;;;5141706;27;19923;-48
2022/08/26 04:19:45;;;;;;;;;;;20.30;55.00;;;;;;5143448;27;19939;-48
2022/08/26 04:22:11;;;;;;;;;;;20.10;53.80;;;;;;5150519;27;20342;-47
2022/08/26 04:24:38;;;;;;;;;;;19.90;53.00;;;;;;5145185;27;19968;-46
2022/08/26 04:27:04;;;;;;;;;;;19.90;54.80;;;;;;5145100;27;20402;-46
2022/08/26 04:29:30;;;;;;;;;;;20.60;60.20;;;;;;5150478;27;20293;-48
2022/08/26 04:31:56;;;;;;;;;;;21.30;61.10;;;;;;5144887;27;19927;-48
2022/08/26 04:34:22;;;;;;;;;;;21.50;58.40;;;;;;5148436;27;19929;-55
2022/08/26 04:36:48;;;;;;;;;;;20.80;56.50;;;;;;5142700;27;19923;-47
2022/08/26 04:39:15;;;;;;;;;;;20.40;54.90;;;;;;5144715;27;19930;-46
2022/08/26 04:41:42;;;;;;;;;;;20.00;54.10;;;;;;5150213;27;19923;-49
2022/08/26 04:44:08;;;;;;;;;;;20.00;52.90;;;;;;5143619;27;19981;-47
2022/08/26 04:46:34;;;;;;;;;;;19.80;52.70;;;;;;5144713;27;19923;-47
2022/08/26 04:48:59;;;;;;;;;;;19.80;54.00;;;;;;5150238;27;19977;-48
2022/08/26 04:51:28;;;;;;;;;;;20.30;60.20;;;;;;5144454;27;20301;-47
2022/08/26 04:53:55;;;;;;;;;;;21.10;61.10;;;;;;5140959;27;19923;-46
2022/08/26 04:56:23;;;;;;;;;;;21.70;59.50;;;;;;5148263;27;19923;-49
2022/08/26 04:58:49;;;;;;;;;;;20.90;57.00;;;;;;5144489;27;19930;-46
2022/08/26 05:01:14;;;;;;;;;;;20.50;55.10;;;;;;5150024;27;19923;-46
2022/08/26 05:03:40;;;;;;;;;;;20.30;53.90;;;;;;5144305;27;19923;-46
2022/08/26 05:06:06;;;;;;;;;;;20.10;53.20;;;;;;5144738;27;19931;-46
2022/08/26 05:08:32;;;;;;;;;;;19.80;52.90;;;;;;5149810;27;19934;-47
2022/08/26 05:10:58;;;;;;;;;;;19.90;54.70;;;;;;5144296;27;20408;-46
2022/08/26 05:13:25;;;;;;;;;;;20.40;60.50;;;;;;5139276;27;20187;-47
2022/08/26 05:15:51;;;;;;;;;;;21.30;60.90;;;;;;5149577;27;20279;-47
2022/08/26 05:18:17;;;;;;;;;;;21.50;59.00;;;;;;5144069;27;19992;-46
2022/08/26 05:20:44;;;;;;;;;;;20.70;56.60;;;;;;5149475;27;20378;-45
2022/08/26 05:23:10;;;;;;;;;;;20.40;54.70;;;;;;5144330;27;19930;-46
2022/08/26 05:25:40;;;;;;;;;;;20.30;53.60;;;;;;5143707;27;20300;-46
2022/08/26 05:28:07;;;;;;;;;;;20.00;53.10;;;;;;5149242;27;20052;-46
2022/08/26 05:30:33;;;;;;;;;;;19.80;52.70;;;;;;5140083;27;20149;-47
2022/08/26 05:32:58;;;;;;;;;;;20.30;58.20;;;;;;5142390;27;19934;-47
2022/08/26 05:35:27;;;;;;;;;;;20.90;61.00;;;;;;5149385;27;20252;-47
2022/08/26 05:37:52;;;;;;;;;;;21.70;60.20;;;;;;5143562;27;19955;-47
2022/08/26 05:40:18;;;;;;;;;;;20.80;57.70;;;;;;5144056;27;20377;-51
2022/08/26 05:42:45;;;;;;;;;;;20.50;55.90;;;;;;5130673;27;20011;-48
2022/08/26 05:45:11;;;;;;;;;;;20.20;54.30;;;;;;5142349;27;19923;-45
2022/08/26 05:47:37;;;;;;;;;;;20.00;53.00;;;;;;5148927;27;19937;-47
2022/08/26 05:50:04;;;;;;;;;;;20.00;52.50;;;;;;5138242;27;19940;-47
2022/08/26 05:52:31;;;;;;;;;;;19.90;56.80;;;;;;5143163;27;19923;-49
2022/08/26 05:54:57;;;;;;;;;;;20.70;60.80;;;;;;5147432;27;19927;-48
2022/08/26 05:57:22;;;;;;;;;;;21.40;60.50;;;;;;5143289;27;19930;-46
2022/08/26 05:59:48;;;;;;;;;;;21.30;58.20;;;;;;5143250;27;20605;-46
2022/08/26 06:02:14;;;;;;;;;;;20.60;56.50;;;;;;5130160;27;19923;-46
2022/08/26 06:04:40;;;;;;;;;;;20.30;54.90;;;;;;5143152;27;19938;-47
2022/08/26 06:07:05;;;;;;;;;;;20.00;53.90;;;;;;5145306;27;19927;-48
2022/08/26 06:09:31;;;;;;;;;;;19.90;53.00;;;;;;5141314;27;19923;-50
2022/08/26 06:11:57;;;;;;;;;;;19.80;52.70;;;;;;5143068;27;20259;-47
2022/08/26 06:14:24;;;;;;;;;;;20.20;59.40;;;;;;5148451;27;20356;-46
2022/08/26 06:16:50;;;;;;;;;;;21.00;61.10;;;;;;5142776;27;19927;-48
2022/08/26 06:19:16;;;;;;;;;;;21.70;59.50;;;;;;5142986;27;19934;-47
2022/08/26 06:21:43;;;;;;;;;;;21.00;57.00;;;;;;5146656;27;19968;-46
2022/08/26 06:26:55;;;;;;;;;;;20.20;54.20;;;;;;5134406;27;20268;-47
2022/08/26 06:29:21;;;;;;;;;;;20.20;53.10;;;;;;5148098;27;20289;-45
2022/08/26 06:31:47;;;;;;;;;;;20.10;52.30;;;;;;5142674;27;19989;-47
2022/08/26 06:34:13;;;;;;;;;;;19.70;54.60;;;;;;5148071;27;20332;-46
2022/08/26 06:36:39;;;;;;;;;;;20.50;59.80;;;;;;5142725;27;20430;-46
2022/08/26 06:39:05;;;;;;;;;;;21.10;61.00;;;;;;5142721;27;20922;-45
2022/08/26 06:41:32;;;;;;;;;;;21.40;58.80;;;;;;5147981;27;19939;-48
2022/08/26 06:43:59;;;;;;;;;;;20.80;56.50;;;;;;5138775;27;19970;-48
2022/08/26 06:46:25;;;;;;;;;;;20.20;55.30;;;;;;5140492;27;20170;-46
2022/08/26 06:48:51;;;;;;;;;;;20.30;53.80;;;;;;5147992;27;20014;-46
2022/08/26 06:51:18;;;;;;;;;;;19.90;53.40;;;;;;5142377;27;19923;-46
2022/08/26 06:53:46;;;;;;;;;;;19.80;52.70;;;;;;5145617;27;19945;-52
2022/08/26 06:56:13;;;;;;;;;;;20.00;58.20;;;;;;5146195;27;19927;-47
2022/08/26 06:58:39;;;;;;;;;;;20.80;61.00;;;;;;5142376;27;19927;-47
2022/08/26 07:01:12;;;;;;;;;;;21.50;60.30;;;;;;5147701;27;19968;-46
2022/08/26 07:03:38;;;;;;;;;;;21.00;57.90;;;;;;5136945;27;19975;-46
2022/08/26 07:06:04;;;;;;;;;;;20.60;55.20;;;;;;5143198;27;19923;-46
2022/08/26 07:08:30;;;;;;;;;;;20.40;54.20;;;;;;5154716;27;19954;-48
2022/08/26 07:10:56;;;;;;;;;;;20.20;53.50;;;;;;5149157;27;19923;-48
2022/08/26 07:13:22;;;;;;;;;;;19.80;53.30;;;;;;5149080;27;19956;-45
2022/08/26 07:15:48;;;;;;;;;;;19.90;52.40;;;;;;5154625;27;19922;-46
2022/08/26 07:18:13;;;;;;;;;;;20.30;58.80;;;;;;5148919;27;19972;-46
2022/08/26 07:20:39;;;;;;;;;;;20.90;61.20;;;;;;5151109;27;19941;-46
2022/08/26 07:23:08;;;;;;;;;;;21.70;60.30;;;;;;5147144;27;19927;-47
2022/08/26 07:25:38;;;;;;;;;;;21.10;57.50;;;;;;5148848;27;19923;-49
2022/08/26 07:28:04;;;;;;;;;;;20.50;55.90;;;;;;5154263;27;19971;-46
2022/08/26 07:30:29;;;;;;;;;;;20.30;54.40;;;;;;5148908;27;19924;-49
2022/08/26 07:32:56;;;;;;;;;;;20.10;53.60;;;;;;5148897;27;19926;-47
2022/08/26 07:35:22;;;;;;;;;;;20.00;53.00;;;;;;5154305;27;19955;-46
2022/08/26 07:37:47;;;;;;;;;;;19.80;52.80;;;;;;5148891;27;20376;-46
2022/08/26 07:40:14;;;;;;;;;;;20.00;56.60;;;;;;5145532;27;19997;-55
2022/08/26 07:42:39;;;;;;;;;;;20.70;60.60;;;;;;5152735;27;20005;-47
2022/08/26 07:45:05;;;;;;;;;;;21.40;61.00;;;;;;5148835;27;20344;-47
2022/08/26 07:47:31;;;;;;;;;;;21.50;58.90;;;;;;5154139;27;19923;-45
2022/08/26 07:49:57;;;;;;;;;;;20.80;56.60;;;;;;5148728;27;19923;-46
2022/08/26 07:52:24;;;;;;;;;;;20.70;54.80;;;;;;5148927;27;19927;-46
2022/08/26 07:54:49;;;;;;;;;;;20.30;54.50;;;;;;5154535;27;20014;-46
2022/08/26 07:57:15;;;;;;;;;;;20.10;53.90;;;;;;5145275;27;19931;-50
2022/08/26 07:59:42;;;;;;;;;;;20.00;53.00;;;;;;5146288;27;19923;-44
2022/08/26 08:02:08;;;;;;;;;;;20.00;52.70;;;;;;5154122;27;20446;-47
2022/08/26 08:04:34;;;;;;;;;;;20.10;56.70;;;;;;5148645;27;20014;-46
2022/08/26 08:06:59;;;;;;;;;;;20.80;60.60;;;;;;5154205;27;19927;-45
2022/08/26 08:09:26;;;;;;;;;;;21.50;60.90;;;;;;5148782;27;19927;-47
2022/08/26 08:11:51;;;;;;;;;;;21.40;58.10;;;;;;5148353;27;19931;-49
2022/08/26 08:14:18;;;;;;;;;;;20.90;56.10;;;;;;5153833;27;19930;-44
2022/08/26 08:16:44;;;;;;;;;;;20.60;55.00;;;;;;5143340;27;19930;-47
2022/08/26 08:19:10;;;;;;;;;;;20.30;53.80;;;;;;5145237;27;20259;-46
2022/08/26 08:21:35;;;;;;;;;;;20.10;53.50;;;;;;5150777;27;19926;-45
2022/08/26 08:24:01;;;;;;;;;;;20.00;53.00;;;;;;5145281;27;19930;-46
2022/08/26 08:26:27;;;;;;;;;;;20.00;52.90;;;;;;5150785;27;19959;-47
2022/08/26 08:28:53;;;;;;;;;;;20.20;56.90;;;;;;5145233;27;19937;-49
2022/08/26 08:31:20;;;;;;;;;;;20.90;60.60;;;;;;5145169;27;19967;-47
2022/08/26 08:33:46;;;;;;;;;;;21.50;61.00;;;;;;5148153;27;19983;-57
2022/08/26 08:36:13;;;;;;;;;;;21.30;58.50;;;;;;5142322;27;20322;-48
2022/08/26 08:38:39;;;;;;;;;;;20.70;56.90;;;;;;5144946;27;20161;-47
2022/08/26 08:41:05;;;;;;;;;;;20.40;55.20;;;;;;5149335;27;20048;-47
2022/08/26 08:43:32;;;;;;;;;;;20.30;54.60;;;;;;5145062;27;20005;-45
2022/08/26 08:45:59;;;;;;;;;;;20.30;53.40;;;;;;5146974;27;19972;-52
2022/08/26 08:48:26;;;;;;;;;;;20.20;53.20;;;;;;5146307;27;20405;-46
2022/08/26 08:50:52;;;;;;;;;;;20.00;53.10;;;;;;5143309;27;20301;-46
2022/08/26 08:53:21;;;;;;;;;;;19.90;52.60;;;;;;5145363;27;19923;-46
2022/08/26 08:55:50;;;;;;;;;;;20.00;55.00;;;;;;5142780;27;20316;-47
2022/08/26 08:58:17;;;;;;;;;;;20.60;60.40;;;;;;5144793;27;19934;-48
2022/08/26 09:00:52;;;;;;;;;;;21.30;61.30;;;;;;5148868;27;19923;-47
2022/08/26 09:03:22;;;;;;;;;;;21.70;59.40;;;;;;5141368;27;20375;-45
2022/08/26 09:05:50;;;;;;;;;;;20.90;56.80;;;;;;5144433;27;20029;-46
2022/08/26 09:08:21;;;;;;;;;;;20.60;55.40;;;;;;5149977;27;20390;-51
2022/08/26 09:10:54;;;;;;;;;;;20.40;54.40;;;;;;5139550;27;19975;-49
2022/08/26 09:13:20;;;;;;;;;;;20.10;54.30;;;;;;5142100;27;20371;-45
2022/08/26 09:15:49;;;;;;;;;;;20.30;53.20;;;;;;5149698;27;19970;-46
2022/08/26 09:18:24;;;;;;;;;;;20.30;53.00;;;;;;5144146;27;19931;-45
2022/08/26 09:20:57;;;;;;;;;;;20.00;53.20;;;;;;5147166;27;19923;-56
2022/08/26 09:23:23;;;;;;;;;;;19.90;52.50;;;;;;5149560;27;19923;-47
2022/08/26 09:25:53;;;;;;;;;;;19.80;53.30;;;;;;5143712;27;19923;-50
2022/08/26 09:28:19;;;;;;;;;;;20.40;59.20;;;;;;5149201;27;19923;-54
2022/08/26 09:30:45;;;;;;;;;;;21.20;61.20;;;;;;5138032;27;19933;-46
2022/08/26 09:33:14;;;;;;;;;;;21.80;60.50;;;;;;5142412;27;20040;-46
2022/08/26 09:35:41;;;;;;;;;;;21.10;57.70;;;;;;5149304;27;19923;-45
2022/08/26 09:38:19;;;;;;;;;;;20.80;56.00;;;;;;5143867;27;20366;-48
2022/08/26 09:40:53;;;;;;;;;;;20.50;54.70;;;;;;5143744;27;19937;-47
2022/08/26 09:43:18;;;;;;;;;;;20.30;54.20;;;;;;5149156;27;19933;-49
2022/08/26 09:45:45;;;;;;;;;;;20.30;53.30;;;;;;5143630;27;19923;-46
2022/08/26 09:48:11;;;;;;;;;;;20.10;52.90;;;;;;5138093;27;20081;-47
2022/08/26 09:50:56;;;;;;;;;;;20.00;53.00;;;;;;5145907;27;19952;-46
2022/08/26 09:53:24;;;;;;;;;;;20.00;52.60;;;;;;5124850;27;19923;-48
2022/08/26 09:55:51;;;;;;;;;;;20.60;59.40;;;;;;5143586;27;19923;-46
2022/08/26 09:58:33;;;;;;;;;;;21.20;61.50;;;;;;5148954;27;19931;-47
2022/08/26 10:01:00;;;;;;;;;;;21.80;59.70;;;;;;5117601;27;20029;-46
2022/08/26 10:03:27;;;;;;;;;;;21.00;57.20;;;;;;5145653;27;20010;-53
2022/08/26 10:06:00;;;;;;;;;;;20.70;55.60;;;;;;5143816;27;20400;-52
2022/08/26 10:08:35;;;;;;;;;;;20.70;54.30;;;;;;5141031;27;20005;-46
2022/08/26 10:11:03;;;;;;;;;;;20.30;54.50;;;;;;5148589;27;19924;-45
2022/08/26 10:13:33;;;;;;;;;;;20.20;53.60;;;;;;5140897;27;19934;-47
2022/08/26 10:16:00;;;;;;;;;;;20.10;53.60;;;;;;5142892;27;20036;-48
2022/08/26 10:18:34;;;;;;;;;;;20.10;53.00;;;;;;5145851;27;19927;-46
2022/08/26 10:21:09;;;;;;;;;;;19.90;53.10;;;;;;5143145;27;19966;-49
2022/08/26 10:23:37;;;;;;;;;;;19.80;53.20;;;;;;5142133;27;19937;-48
2022/08/26 10:26:04;;;;;;;;;;;20.00;52.80;;;;;;5124772;27;19937;-47
2022/08/26 10:28:30;;;;;;;;;;;20.20;57.90;;;;;;5142772;27;19927;-47
2022/08/26 10:31:16;;;;;;;;;;;21.00;60.80;;;;;;5142598;27;19934;-46
2022/08/26 10:33:42;;;;;;;;;;;21.70;61.10;;;;;;5133661;27;19923;-46
2022/08/26 10:36:47;;;;;;;;;;;21.30;58.10;;;;;;5142597;27;20315;-46
2022/08/26 10:38:55;;;;;;;;;;;20.80;56.50;;;;;;5139046;27;19929;-45
2022/08/26 10:41:21;;;;;;;;;;;20.60;54.90;;;;;;5147231;27;20390;-45
2022/08/26 10:43:51;;;;;;;;;;;20.40;54.10;;;;;;5137598;27;19946;-45
2022/08/26 10:46:18;;;;;;;;;;;20.40;53.70;;;;;;5142247;27;20257;-45
2022/08/26 10:48:52;;;;;;;;;;;20.30;53.00;;;;;;5148142;27;20017;-47
2022/08/26 10:51:21;;;;;;;;;;;20.10;53.00;;;;;;5140077;27;20321;-46
2022/08/26 10:53:55;;;;;;;;;;;20.20;52.70;;;;;;5144033;27;19971;-55
2022/08/26 10:56:40;;;;;;;;;;;20.10;52.60;;;;;;5146575;27;19983;-47
2022/08/26 10:59:13;;;;;;;;;;;20.10;57.40;;;;;;5142376;27;19930;-49
2022/08/26 11:01:48;;;;;;;;;;;21.00;60.80;;;;;;5137543;27;19923;-47
2022/08/26 11:04:22;;;;;;;;;;;21.80;60.80;;;;;;5146607;27;19979;-47
2022/08/26 11:06:48;;;;;;;;;;;21.30;57.80;;;;;;5142185;27;19979;-47
2022/08/26 11:09:32;;;;;;;;;;;20.90;56.00;;;;;;5144843;27;20335;-56
2022/08/26 11:11:59;;;;;;;;;;;20.60;55.00;;;;;;5147630;27;19927;-46
2022/08/26 11:14:32;;;;;;;;;;;20.40;54.10;;;;;;5142034;27;19933;-47
2022/08/26 11:16:58;;;;;;;;;;;20.40;53.30;;;;;;5145162;27;19930;-54
2022/08/26 11:19:30;;;;;;;;;;;20.20;53.40;;;;;;5141983;27;19982;-49
2022/08/26 11:22:04;;;;;;;;;;;20.10;53.30;;;;;;5139728;27;19923;-45
2022/08/26 11:24:39;;;;;;;;;;;20.10;53.00;;;;;;5147548;27;20026;-46
2022/08/26 11:27:09;;;;;;;;;;;20.20;52.70;;;;;;5143809;27;19930;-45
2022/08/26 11:30:07;;;;;;;;;;;20.10;52.60;;;;;;5141959;27;19934;-46
2022/08/26 11:32:32;;;;;;;;;;;19.90;52.70;;;;;;5106938;27;19929;-53
2022/08/26 11:35:03;;;;;;;;;;;20.30;56.60;;;;;;5147040;27;19923;-46
2022/08/26 11:37:38;;;;;;;;;;;20.90;60.40;;;;;;5138392;27;20463;-47
2022/08/26 11:40:06;;;;;;;;;;;21.70;60.70;;;;;;5144937;27;19923;-48
2022/08/26 11:42:36;;;;;;;;;;;21.40;58.30;;;;;;5142454;27;20022;-45
2022/08/26 11:45:22;;;;;;;;;;;20.90;56.50;;;;;;5140484;27;19923;-44
2022/08/26 11:47:47;;;;;;;;;;;20.50;55.50;;;;;;5147126;27;19937;-46
2022/08/26 11:50:18;;;;;;;;;;;20.60;54.40;;;;;;5141946;27;19923;-46
2022/08/26 11:52:50;;;;;;;;;;;20.40;53.90;;;;;;5141572;27;20358;-47
2022/08/26 11:55:16;;;;;;;;;;;20.30;53.50;;;;;;5151252;27;20311;-45
2022/08/26 11:57:44;;;;;;;;;;;20.30;53.30;;;;;;5140180;27;19923;-48
2022/08/26 12:00:13;;;;;;;;;;;20.10;52.90;;;;;;5145687;27;19947;-47
2022/08/26 12:02:39;;;;;;;;;;;20.20;52.60;;;;;;5149863;27;20325;-48
2022/08/26 12:05:05;;;;;;;;;;;20.20;52.50;;;;;;5145663;27;19923;-46
2022/08/26 12:07:31;;;;;;;;;;;20.00;52.70;;;;;;5143872;27;19931;-44
2022/08/26 12:09:58;;;;;;;;;;;20.00;52.70;;;;;;5150953;27;20394;-47
2022/08/26 12:12:30;;;;;;;;;;;20.40;58.00;;;;;;5145182;27;19983;-46
2022/08/26 12:15:03;;;;;;;;;;;21.10;60.90;;;;;;5146629;27;19977;-53
2022/08/26 12:17:29;;;;;;;;;;;21.80;60.80;;;;;;5147429;27;20025;-48
2022/08/26 12:19:55;;;;;;;;;;;21.10;57.80;;;;;;5145482;27;20392;-46
2022/08/26 12:22:33;;;;;;;;;;;20.90;55.50;;;;;;5150717;27;19930;-47
2022/08/26 12:25:00;;;;;;;;;;;20.70;54.80;;;;;;5145148;27;19922;-47
2022/08/26 12:27:26;;;;;;;;;;;20.30;54.50;;;;;;5142797;27;19923;-45
2022/08/26 12:30:05;;;;;;;;;;;20.30;53.80;;;;;;5150909;27;20316;-46
2022/08/26 12:32:30;;;;;;;;;;;20.30;53.20;;;;;;5143238;27;19931;-47
2022/08/26 12:34:56;;;;;;;;;;;20.20;52.90;;;;;;5141195;27;20025;-47
2022/08/26 12:37:22;;;;;;;;;;;20.00;53.00;;;;;;5150452;27;19984;-47
2022/08/26 12:39:48;;;;;;;;;;;20.10;52.70;;;;;;5143701;27;19931;-46
2022/08/26 12:42:14;;;;;;;;;;;20.10;52.80;;;;;;5144956;27;19927;-52
2022/08/26 12:44:44;;;;;;;;;;;20.20;52.40;;;;;;5150563;27;19927;-46
2022/08/26 12:47:21;;;;;;;;;;;20.30;56.90;;;;;;5144970;27;19990;-45
2022/08/26 12:49:47;;;;;;;;;;;21.10;60.10;;;;;;5149362;27;19937;-56
2022/08/26 12:52:28;;;;;;;;;;;21.80;60.50;;;;;;5139274;27;19966;-48
2022/08/26 12:55:05;;;;;;;;;;;21.30;57.90;;;;;;5143242;27;19923;-45
2022/08/26 12:57:34;;;;;;;;;;;20.90;56.00;;;;;;5148423;27;19949;-53
2022/08/26 13:00:19;;;;;;;;;;;20.70;54.90;;;;;;5146901;27;20289;-47
2022/08/26 13:02:45;;;;;;;;;;;20.60;54.20;;;;;;5144591;27;20417;-47
2022/08/26 13:05:18;;;;;;;;;;;20.40;53.70;;;;;;5148956;27;19923;-47
2022/08/26 13:07:49;;;;;;;;;;;20.30;53.40;;;;;;5146199;27;20006;-52
2022/08/26 13:10:31;;;;;;;;;;;20.20;53.40;;;;;;5139245;27;19923;-49
2022/08/26 13:12:57;;;;;;;;;;;20.30;53.30;;;;;;5147477;27;19967;-47
2022/08/26 13:15:23;;;;;;;;;;;20.40;52.70;;;;;;5144174;27;20378;-50
2022/08/26 13:17:49;;;;;;;;;;;20.50;52.50;;;;;;5144155;27;19923;-48
2022/08/26 13:20:14;;;;;;;;;;;20.50;52.10;;;;;;5148142;27;19971;-47
2022/08/26 13:22:40;;;;;;;;;;;20.30;52.60;;;;;;5139796;27;19923;-48
2022/08/26 13:25:06;;;;;;;;;;;20.40;52.30;;;;;;5144000;27;20585;-45
2022/08/26 13:27:32;;;;;;;;;;;20.30;52.60;;;;;;5147789;27;20009;-54
2022/08/26 13:29:59;;;;;;;;;;;20.20;52.40;;;;;;5140160;27;19927;-46
2022/08/26 13:32:24;;;;;;;;;;;20.30;52.30;;;;;;5147561;27;19923;-58
2022/08/26 13:34:51;;;;;;;;;;;20.20;52.30;;;;;;5146273;27;19929;-46
2022/08/26 13:37:21;;;;;;;;;;;20.50;53.90;;;;;;5142494;27;19941;-48
2022/08/26 13:39:47;;;;;;;;;;;20.30;53.30;;;;;;5149492;27;20014;-47
2022/08/26 13:42:13;;;;;;;;;;;20.10;53.20;;;;;;5143811;27;19930;-45
2022/08/26 13:44:39;;;;;;;;;;;20.20;53.00;;;;;;5143707;27;19923;-47
2022/08/26 13:47:05;;;;;;;;;;;20.00;53.20;;;;;;5145005;27;19987;-53
2022/08/26 13:49:31;;;;;;;;;;;20.20;56.60;;;;;;5142191;27;20285;-46
2022/08/26 13:51:57;;;;;;;;;;;21.00;60.00;;;;;;5143311;27;19927;-49
2022/08/26 13:54:23;;;;;;;;;;;21.60;60.90;;;;;;5149250;27;19927;-49
2022/08/26 13:56:48;;;;;;;;;;;21.90;58.80;;;;;;5143132;27;19926;-49
2022/08/26 13:59:14;;;;;;;;;;;21.10;56.90;;;;;;5149006;27;20388;-45
2022/08/26 14:01:40;;;;;;;;;;;20.80;55.30;;;;;;5143325;27;20287;-46
2022/08/26 14:04:06;;;;;;;;;;;20.60;54.10;;;;;;5142611;27;19923;-48
2022/08/26 14:06:32;;;;;;;;;;;20.50;53.90;;;;;;5143652;27;20036;-47
2022/08/26 14:08:57;;;;;;;;;;;20.30;53.10;;;;;;5142845;27;19934;-46
2022/08/26 14:11:23;;;;;;;;;;;20.30;53.00;;;;;;5119268;27;19928;-45
2022/08/26 14:13:49;;;;;;;;;;;20.30;52.60;;;;;;5148578;27;19980;-47
2022/08/26 14:16:19;;;;;;;;;;;20.10;52.60;;;;;;5142950;27;20446;-46
2022/08/26 14:18:45;;;;;;;;;;;20.20;52.30;;;;;;5147350;27;19923;-50
2022/08/26 14:21:11;;;;;;;;;;;20.10;52.20;;;;;;5142818;27;19931;-47